Time;durP1;ratioP1;P1;durP2;ratioP2;P2;SDS_P1;SDS_P2;PMS_P1;PMS_P2;Temp;Humidity;BMP_temperature;BMP_pressure;BME280_temperature;BME280_humidity;BME280_pressure;Samples;Min_cycle;Max_cycle;Signal;HPM_P1;HPM_P2
2022/05/26 00:02:00;;;;;;;8.07;4.00;;;;;;;;;;5014189;28;20046;-73
2022/05/26 00:04:28;;;;;;;5.95;3.90;;;;;;;;;;5014185;28;20132;-72
2022/05/26 00:06:55;;;;;;;6.07;3.58;;;;;;;;;;5018912;28;20068;-72
2022/05/26 00:09:22;;;;;;;6.70;3.80;;;;;;;;;;5034353;28;20116;-73
2022/05/26 00:11:50;;;;;;;7.22;3.50;;;;;;;;;;5033227;28;20045;-73
2022/05/26 00:14:18;;;;;;;5.28;3.25;;;;;;;;;;5033953;28;20096;-73
2022/05/26 00:16:46;;;;;;;5.30;3.72;;;;;;;;;;5033927;28;20060;-73
2022/05/26 00:19:15;;;;;;;7.03;3.95;;;;;;;;;;5033592;28;20045;-73
2022/05/26 00:21:42;;;;;;;5.70;3.42;;;;;;;;;;5033498;28;20108;-73
2022/05/26 00:24:10;;;;;;;6.50;3.97;;;;;;;;;;5027017;28;20437;-73
2022/05/26 00:26:37;;;;;;;6.45;3.88;;;;;;;;;;5013543;28;20501;-73
2022/05/26 00:29:05;;;;;;;5.88;4.75;;;;;;;;;;5013812;28;20503;-73
2022/05/26 00:31:34;;;;;;;7.35;4.15;;;;;;;;;;5013219;28;20042;-73
2022/05/26 00:34:00;;;;;;;7.90;3.85;;;;;;;;;;5013588;28;20053;-73
2022/05/26 00:36:41;;;;;;;6.75;3.95;;;;;;;;;;5013428;28;20112;-73
2022/05/26 00:39:10;;;;;;;8.32;4.50;;;;;;;;;;5014210;28;20507;-73
2022/05/26 00:41:43;;;;;;;6.45;4.13;;;;;;;;;;5012812;28;20050;-73
2022/05/26 00:44:12;;;;;;;8.90;4.50;;;;;;;;;;5013466;28;20046;-73
2022/05/26 00:46:45;;;;;;;7.15;4.25;;;;;;;;;;5013020;28;20668;-73
2022/05/26 00:49:19;;;;;;;7.05;4.00;;;;;;;;;;5013771;28;20045;-73
2022/05/26 00:51:47;;;;;;;6.93;4.20;;;;;;;;;;5012532;28;20054;-73
2022/05/26 00:54:17;;;;;;;7.82;4.28;;;;;;;;;;5013435;28;20164;-73
2022/05/26 00:56:49;;;;;;;8.30;4.22;;;;;;;;;;5012921;28;20049;-73
2022/05/26 00:59:26;;;;;;;7.22;4.68;;;;;;;;;;5027659;28;20049;-73
2022/05/26 01:01:53;;;;;;;9.60;4.80;;;;;;;;;;5032526;28;20050;-73
2022/05/26 01:04:23;;;;;;;7.10;3.95;;;;;;;;;;5032658;28;20095;-73
2022/05/26 01:06:58;;;;;;;7.55;4.47;;;;;;;;;;5032780;28;20054;-73
2022/05/26 01:09:25;;;;;;;7.10;4.00;;;;;;;;;;5032829;28;20045;-74
2022/05/26 01:11:52;;;;;;;7.18;4.20;;;;;;;;;;5032041;28;20447;-73
2022/05/26 01:14:25;;;;;;;7.18;4.43;;;;;;;;;;5032616;28;20467;-73
2022/05/26 01:17:07;;;;;;;7.30;4.18;;;;;;;;;;5032307;28;20060;-73
2022/05/26 01:20:23;;;;;;;8.00;4.28;;;;;;;;;;5032552;28;20049;-72
2022/05/26 01:23:37;;;;;;;8.32;4.93;;;;;;;;;;5032056;28;20069;-73
2022/05/26 01:26:31;;;;;;;8.30;4.80;;;;;;;;;;5032238;28;20083;-72
2022/05/26 01:29:17;;;;;;;8.07;5.20;;;;;;;;;;5032903;28;20049;-73
2022/05/26 01:31:53;;;;;;;8.13;4.53;;;;;;;;;;5031820;28;20057;-72
2022/05/26 01:34:27;;;;;;;9.63;4.70;;;;;;;;;;5032509;28;20049;-72
2022/05/26 01:37:02;;;;;;;7.28;4.95;;;;;;;;;;5032203;28;20099;-72
2022/05/26 01:39:39;;;;;;;6.88;4.60;;;;;;;;;;5034765;28;20049;-72
2022/05/26 01:42:19;;;;;;;9.30;4.85;;;;;;;;;;5033040;28;20053;-73
2022/05/26 01:44:49;;;;;;;;;;;;;;;;;;5032503;28;20045;-73
2022/05/26 01:47:29;;;;;;;8.13;4.47;;;;;;;;;;5031810;28;20593;-72
2022/05/26 01:50:03;;;;;;;8.77;5.50;;;;;;;;;;5032206;28;20057;-72
2022/05/26 01:52:35;;;;;;;8.23;4.18;;;;;;;;;;5031802;28;20060;-72
2022/05/26 01:55:10;;;;;;;7.68;4.45;;;;;;;;;;5031992;28;20054;-72
2022/05/26 01:57:43;;;;;;;7.38;4.25;;;;;;;;;;5030642;28;20139;-72
2022/05/26 02:00:14;;;;;;;7.72;4.60;;;;;;;;;;5012384;28;20100;-72
2022/05/26 02:02:52;;;;;;;8.65;4.53;;;;;;;;;;5011964;28;20568;-72
2022/05/26 02:05:22;;;;;;;35.90;15.05;;;;;;;;;;5012439;28;20050;-72
2022/05/26 02:07:53;;;;;;;11.15;5.00;;;;;;;;;;5011896;28;20099;-72
2022/05/26 02:10:21;;;;;;;;;;;;;;;;;;5012597;28;20057;-72
2022/05/26 02:12:53;;;;;;;7.72;4.82;;;;;;;;;;5011569;28;20443;-72
2022/05/26 02:15:24;;;;;;;8.43;4.82;;;;;;;;;;5011972;28;20096;-72
2022/05/26 02:17:58;;;;;;;7.40;4.97;;;;;;;;;;5012195;28;20046;-72
2022/05/26 02:20:31;;;;;;;7.57;4.80;;;;;;;;;;5012027;28;20100;-72
2022/05/26 02:23:03;;;;;;;7.85;4.78;;;;;;;;;;5011614;28;20053;-72
2022/05/26 02:25:30;;;;;;;8.63;5.07;;;;;;;;;;5012107;28;20092;-72
2022/05/26 02:27:58;;;;;;;8.07;4.70;;;;;;;;;;5011796;28;20049;-72
2022/05/26 02:30:28;;;;;;;9.80;5.40;;;;;;;;;;5011995;28;20049;-72
2022/05/26 02:32:57;;;;;;;7.93;5.07;;;;;;;;;;5011495;28;20042;-72
2022/05/26 02:35:27;;;;;;;9.40;6.75;;;;;;;;;;5013340;28;20464;-72
2022/05/26 02:37:58;;;;;;;7.97;6.07;;;;;;;;;;5015521;28;20128;-72
2022/05/26 02:40:25;;;;;;;11.30;7.15;;;;;;;;;;5015833;28;20054;-73
2022/05/26 02:42:56;;;;;;;9.63;6.70;;;;;;;;;;5015364;28;20528;-72
2022/05/26 02:45:30;;;;;;;8.68;6.22;;;;;;;;;;5015695;28;20057;-72
2022/05/26 02:48:06;;;;;;;9.57;6.90;;;;;;;;;;5015403;28;20050;-72
2022/05/26 02:50:52;;;;;;;11.82;7.60;;;;;;;;;;5015317;28;20556;-72
2022/05/26 02:53:24;;;;;;;10.63;7.13;;;;;;;;;;5015049;28;20042;-72
2022/05/26 02:56:03;;;;;;;13.77;8.02;;;;;;;;;;5015361;28;20639;-71
2022/05/26 02:58:37;;;;;;;9.43;5.50;;;;;;;;;;5023563;28;20049;-71
2022/05/26 03:01:12;;;;;;;10.60;5.43;;;;;;;;;;5034782;28;20069;-71
2022/05/26 03:03:46;;;;;;;8.88;5.68;;;;;;;;;;5035541;28;20049;-71
2022/05/26 03:06:17;;;;;;;10.02;5.00;;;;;;;;;;5034975;28;20045;-71
2022/05/26 03:08:46;;;;;;;9.18;5.22;;;;;;;;;;5034724;28;20419;-71
2022/05/26 03:11:18;;;;;;;8.63;5.40;;;;;;;;;;5034469;28;20045;-72
2022/05/26 03:13:45;;;;;;;13.15;6.38;;;;;;;;;;5034823;28;20057;-71
2022/05/26 03:16:12;;;;;;;8.05;5.22;;;;;;;;;;5035086;28;20041;-71
2022/05/26 03:18:40;;;;;;;8.38;5.38;;;;;;;;;;5034505;28;20049;-71
2022/05/26 03:21:08;;;;;;;8.98;5.63;;;;;;;;;;5034251;28;20045;-71
2022/05/26 03:23:36;;;;;;;8.60;5.63;;;;;;;;;;5034794;28;20049;-72
2022/05/26 03:26:04;;;;;;;8.52;5.18;;;;;;;;;;5034866;28;20045;-72
2022/05/26 03:28:31;;;;;;;8.13;6.07;;;;;;;;;;5034602;28;20103;-71
2022/05/26 03:30:59;;;;;;;7.25;4.72;;;;;;;;;;5034181;28;20512;-71
2022/05/26 03:40:45;;;;;;;12.02;5.18;;;;;;;;;;5034510;28;20041;-72
2022/05/26 03:41:43;;;;;;;7.72;4.93;;;;;;;;;;5034116;28;20045;-71
2022/05/26 03:44:10;;;;;;;8.40;4.82;;;;;;;;;;5034011;28;20057;-71
2022/05/26 03:46:38;;;;;;;7.20;5.35;;;;;;;;;;5033235;28;20049;-71
2022/05/26 03:49:05;;;;;;;9.73;5.13;;;;;;;;;;5034250;28;20079;-72
2022/05/26 03:51:33;;;;;;;8.77;5.55;;;;;;;;;;5033952;28;20049;-72
2022/05/26 03:54:00;;;;;;;11.27;5.80;;;;;;;;;;5034245;28;20083;-73
2022/05/26 03:56:27;;;;;;;12.63;6.03;;;;;;;;;;5034563;28;20071;-73
2022/05/26 03:58:54;;;;;;;10.68;5.63;;;;;;;;;;5023036;28;20113;-72
2022/05/26 04:01:21;;;;;;;8.75;5.47;;;;;;;;;;5013786;28;20472;-73
2022/05/26 04:03:48;;;;;;;8.80;6.03;;;;;;;;;;5014249;28;20144;-72
2022/05/26 04:06:16;;;;;;;8.25;5.85;;;;;;;;;;5013900;28;20581;-72
2022/05/26 04:08:44;;;;;;;8.80;6.10;;;;;;;;;;5014102;28;20096;-72
2022/05/26 04:11:10;;;;;;;11.05;6.68;;;;;;;;;;5013493;28;20563;-72
2022/05/26 04:13:37;;;;;;;11.60;6.80;;;;;;;;;;5015753;28;20046;-71
2022/05/26 04:16:05;;;;;;;10.00;6.53;;;;;;;;;;5016705;28;20050;-72
2022/05/26 04:18:31;;;;;;;9.52;6.45;;;;;;;;;;5016407;28;20093;-72
2022/05/26 04:21:05;;;;;;;11.93;6.75;;;;;;;;;;5003611;28;20050;-72
2022/05/26 04:23:32;;;;;;;8.25;6.43;;;;;;;;;;4996355;28;20140;-72
2022/05/26 04:26:00;;;;;;;10.70;7.15;;;;;;;;;;4994273;28;20055;-72
2022/05/26 04:28:27;;;;;;;14.10;8.25;;;;;;;;;;4993989;28;20453;-72
2022/05/26 04:30:53;;;;;;;11.07;7.97;;;;;;;;;;4994425;28;20059;-72
2022/05/26 04:33:20;;;;;;;11.20;7.30;;;;;;;;;;4997980;28;20050;-71
2022/05/26 04:35:47;;;;;;;13.13;8.45;;;;;;;;;;4999888;28;20086;-71
2022/05/26 04:38:14;;;;;;;12.73;8.43;;;;;;;;;;4999303;28;20146;-71
2022/05/26 04:40:41;;;;;;;11.13;7.50;;;;;;;;;;4999113;28;20081;-71
2022/05/26 04:43:09;;;;;;;11.90;7.63;;;;;;;;;;4996393;28;20560;-71
2022/05/26 04:45:37;;;;;;;11.77;7.50;;;;;;;;;;4995969;28;20104;-71
2022/05/26 04:48:04;;;;;;;11.10;7.60;;;;;;;;;;4997443;28;20050;-71
2022/05/26 04:50:31;;;;;;;9.48;5.95;;;;;;;;;;4995963;28;20505;-71
2022/05/26 04:52:59;;;;;;;9.18;5.88;;;;;;;;;;4995554;28;20054;-71
2022/05/26 04:55:25;;;;;;;9.02;6.07;;;;;;;;;;4996040;28;20129;-71
2022/05/26 04:57:52;;;;;;;8.32;5.25;;;;;;;;;;5001444;28;20046;-71
2022/05/26 05:00:21;;;;;;;8.10;5.72;;;;;;;;;;5034685;28;20045;-71
2022/05/26 05:02:48;;;;;;;9.93;5.80;;;;;;;;;;5034090;28;20416;-73
2022/05/26 05:05:14;;;;;;;10.07;5.40;;;;;;;;;;5032584;28;20415;-71
2022/05/26 05:07:41;;;;;;;7.70;5.45;;;;;;;;;;5033041;28;20107;-71
2022/05/26 05:10:09;;;;;;;9.50;5.30;;;;;;;;;;5032516;28;20459;-71
2022/05/26 05:12:36;;;;;;;11.02;6.35;;;;;;;;;;5032809;28;20435;-72
2022/05/26 05:15:07;;;;;;;8.88;5.82;;;;;;;;;;5033350;28;20081;-71
2022/05/26 05:17:35;;;;;;;11.60;6.35;;;;;;;;;;5032350;28;20471;-71
2022/05/26 05:20:02;;;;;;;11.75;6.60;;;;;;;;;;5013641;28;20064;-71
2022/05/26 05:22:34;;;;;;;9.35;6.53;;;;;;;;;;5014336;28;20501;-72
2022/05/26 05:25:05;;;;;;;10.98;7.00;;;;;;;;;;5014235;28;20054;-71
2022/05/26 05:27:38;;;;;;;12.40;6.53;;;;;;;;;;5006635;28;20053;-71
2022/05/26 05:30:11;;;;;;;9.63;6.03;;;;;;;;;;5012744;28;20120;-72
2022/05/26 05:32:44;;;;;;;11.23;5.22;;;;;;;;;;5012582;28;20053;-71
2022/05/26 05:35:14;;;;;;;8.30;5.15;;;;;;;;;;5012386;28;20049;-72
2022/05/26 05:37:42;;;;;;;7.25;5.13;;;;;;;;;;5013058;28;20080;-75
2022/05/26 05:40:09;;;;;;;8.05;5.07;;;;;;;;;;5012824;28;20493;-71
2022/05/26 05:42:36;;;;;;;8.77;4.97;;;;;;;;;;5012286;28;20050;-72
2022/05/26 05:45:04;;;;;;;7.25;5.32;;;;;;;;;;5012806;28;20131;-71
2022/05/26 05:47:31;;;;;;;8.43;5.57;;;;;;;;;;5012451;28;20057;-72
2022/05/26 05:49:59;;;;;;;9.63;6.47;;;;;;;;;;5012514;28;20050;-72
2022/05/26 05:52:26;;;;;;;8.73;5.18;;;;;;;;;;5012312;28;20049;-73
2022/05/26 05:54:56;;;;;;;7.63;5.25;;;;;;;;;;5012265;28;20045;-72
2022/05/26 05:57:23;;;;;;;7.93;4.97;;;;;;;;;;5012425;28;20045;-72
2022/05/26 05:59:49;;;;;;;8.25;4.93;;;;;;;;;;5031150;28;20061;-72
2022/05/26 06:02:16;;;;;;;6.65;4.95;;;;;;;;;;5032311;28;20049;-71
2022/05/26 06:04:43;;;;;;;6.43;4.70;;;;;;;;;;5032210;28;20500;-72
2022/05/26 06:07:15;;;;;;;6.10;4.43;;;;;;;;;;5032624;28;20546;-72
2022/05/26 06:09:42;;;;;;;8.00;4.93;;;;;;;;;;5032944;28;20084;-73
2022/05/26 06:12:10;;;;;;;8.68;4.75;;;;;;;;;;5028216;28;20505;-72
2022/05/26 06:14:37;;;;;;;7.35;4.95;;;;;;;;;;5016266;28;20053;-74
2022/05/26 06:17:05;;;;;;;9.57;5.07;;;;;;;;;;5017221;28;20064;-72
2022/05/26 06:19:32;;;;;;;7.07;4.40;;;;;;;;;;5017252;28;20050;-72
2022/05/26 06:21:59;;;;;;;7.72;4.45;;;;;;;;;;5016005;28;20136;-72
2022/05/26 06:24:27;;;;;;;9.23;4.97;;;;;;;;;;5016048;28;20497;-72
2022/05/26 06:26:54;;;;;;;6.65;4.78;;;;;;;;;;5016107;28;20391;-72
2022/05/26 06:37:39;;;;;;;7.68;4.47;;;;;;;;;;5016412;28;20096;-71
2022/05/26 06:40:09;;;;;;;7.07;4.50;;;;;;;;;;5015533;28;20497;-71
2022/05/26 06:42:36;;;;;;;;;;;;;;;;;;5015896;28;20145;-73
2022/05/26 06:45:03;;;;;;;8.73;4.25;;;;;;;;;;5015653;28;20388;-72
2022/05/26 06:47:30;;;;;;;7.03;4.22;;;;;;;;;;5015986;28;20521;-72
2022/05/26 06:49:57;;;;;;;8.00;4.15;;;;;;;;;;5015615;28;20528;-72
2022/05/26 06:52:25;;;;;;;6.57;3.90;;;;;;;;;;5014848;28;20104;-72
2022/05/26 06:54:52;;;;;;;7.70;3.92;;;;;;;;;;5015386;28;20092;-72
2022/05/26 06:57:20;;;;;;;7.13;3.55;;;;;;;;;;5015678;28;20100;-73
2022/05/26 06:59:46;;;;;;;7.25;3.75;;;;;;;;;;5033399;28;20046;-71
2022/05/26 07:02:14;;;;;;;13.35;4.50;;;;;;;;;;5034905;28;20447;-71
2022/05/26 07:04:43;;;;;;;8.00;3.80;;;;;;;;;;5034017;28;20052;-73
2022/05/26 07:07:12;;;;;;;6.50;3.60;;;;;;;;;;5034638;28;20128;-72
2022/05/26 07:09:39;;;;;;;18.07;8.43;;;;;;;;;;5035019;28;20050;-71
2022/05/26 07:12:07;;;;;;;7.07;4.43;;;;;;;;;;5034642;28;20045;-72
2022/05/26 07:14:35;;;;;;;6.97;4.13;;;;;;;;;;5035025;28;20468;-72
2022/05/26 07:17:02;;;;;;;6.57;3.47;;;;;;;;;;5036049;28;20103;-72
2022/05/26 07:19:32;;;;;;;7.80;3.63;;;;;;;;;;5035266;28;20107;-72
2022/05/26 07:21:59;;;;;;;9.00;3.60;;;;;;;;;;5033438;28;20115;-72
2022/05/26 07:24:26;;;;;;;8.75;3.97;;;;;;;;;;5034614;28;20103;-73
2022/05/26 07:26:53;;;;;;;8.00;4.05;;;;;;;;;;5035239;28;20145;-75
2022/05/26 07:29:20;;;;;;;6.65;3.53;;;;;;;;;;5036123;28;20049;-78
2022/05/26 07:31:48;;;;;;;7.28;4.03;;;;;;;;;;5039713;28;20049;-79
2022/05/26 07:34:15;;;;;;;7.15;3.70;;;;;;;;;;5039422;28;20042;-82
2022/05/26 07:42:13;;;;;;;5.60;2.90;;;;;;;;;;5043218;28;20423;-82
2022/05/26 07:44:43;;;;;;;7.32;3.05;;;;;;;;;;5041984;28;20480;-82
2022/05/26 07:47:11;;;;;;;4.80;2.88;;;;;;;;;;5041871;28;20046;-82
2022/05/26 07:49:41;;;;;;;9.73;3.47;;;;;;;;;;5043513;28;20045;-82
2022/05/26 07:52:09;;;;;;;8.52;4.18;;;;;;;;;;5044971;28;20072;-81
2022/05/26 07:54:36;;;;;;;9.10;3.90;;;;;;;;;;5045573;28;20186;-81
2022/05/26 07:57:04;;;;;;;6.65;3.75;;;;;;;;;;5044990;28;20385;-81
2022/05/26 07:59:31;;;;;;;8.10;3.92;;;;;;;;;;5028841;28;20045;-81
2022/05/26 08:01:58;;;;;;;6.20;3.85;;;;;;;;;;5026227;28;20053;-81
2022/05/26 08:04:26;;;;;;;6.65;3.85;;;;;;;;;;5015737;28;20420;-81
2022/05/26 08:06:53;;;;;;;6.28;3.72;;;;;;;;;;5016851;28;20045;-78
2022/05/26 08:09:21;;;;;;;10.80;6.55;;;;;;;;;;5016618;28;20305;-76
2022/05/26 08:11:49;;;;;;;15.70;6.55;;;;;;;;;;5017211;28;20057;-77
2022/05/26 08:14:15;;;;;;;7.03;3.60;;;;;;;;;;5002720;28;20053;-77
2022/05/26 08:16:43;;;;;;;7.05;4.10;;;;;;;;;;5013382;28;20049;-79
2022/05/26 08:19:10;;;;;;;11.30;3.72;;;;;;;;;;4999473;28;20046;-78
2022/05/26 08:21:38;;;;;;;5.70;2.90;;;;;;;;;;5004157;28;20042;-79
2022/05/26 08:24:05;;;;;;;5.97;3.25;;;;;;;;;;5019580;28;20141;-78
2022/05/26 08:26:33;;;;;;;7.55;3.40;;;;;;;;;;5018425;28;20125;-77
2022/05/26 08:28:59;;;;;;;7.72;3.20;;;;;;;;;;5018902;28;20121;-77
2022/05/26 08:31:27;;;;;;;7.85;3.90;;;;;;;;;;5016162;28;20420;-78
2022/05/26 08:33:54;;;;;;;6.82;2.83;;;;;;;;;;5002958;28;20047;-77
2022/05/26 08:36:24;;;;;;;5.07;3.20;;;;;;;;;;4995165;28;20104;-78
2022/05/26 08:38:53;;;;;;;9.85;3.90;;;;;;;;;;5000605;28;20102;-77
2022/05/26 08:41:23;;;;;;;11.00;4.75;;;;;;;;;;4996019;28;20049;-77
2022/05/26 08:43:54;;;;;;;13.27;4.45;;;;;;;;;;5006993;28;20054;-77
2022/05/26 08:46:21;;;;;;;8.25;3.63;;;;;;;;;;4998529;28;20138;-77
2022/05/26 08:48:57;;;;;;;5.65;3.22;;;;;;;;;;5012951;28;20057;-76
2022/05/26 08:51:35;;;;;;;7.55;3.75;;;;;;;;;;4993214;28;20081;-76
2022/05/26 08:54:05;;;;;;;5.75;3.38;;;;;;;;;;4994713;28;20564;-77
2022/05/26 08:56:33;;;;;;;8.15;2.80;;;;;;;;;;4993902;28;20050;-77
2022/05/26 08:59:06;;;;;;;6.68;3.30;;;;;;;;;;5022297;28;20259;-78
2022/05/26 09:01:33;;;;;;;5.95;2.83;;;;;;;;;;5018199;28;20058;-78
2022/05/26 09:04:02;;;;;;;6.38;3.03;;;;;;;;;;5010232;28;20402;-77
2022/05/26 09:06:30;;;;;;;6.30;2.97;;;;;;;;;;5008691;28;20041;-76
2022/05/26 09:14:33;;;;;;;5.13;2.40;;;;;;;;;;5015385;28;20053;-78
2022/05/26 09:17:02;;;;;;;6.95;2.47;;;;;;;;;;5010821;28;20468;-76
2022/05/26 09:19:32;;;;;;;5.78;2.65;;;;;;;;;;5010991;28;20045;-76
2022/05/26 09:21:59;;;;;;;8.32;2.90;;;;;;;;;;5011021;28;20077;-77
2022/05/26 09:24:36;;;;;;;5.45;2.40;;;;;;;;;;5010938;28;20060;-77
2022/05/26 09:27:08;;;;;;;4.60;2.17;;;;;;;;;;5006590;28;20500;-77
2022/05/26 09:29:37;;;;;;;5.30;2.40;;;;;;;;;;5013452;28;20104;-76
2022/05/26 09:32:06;;;;;;;5.67;2.50;;;;;;;;;;5011303;28;20046;-76
2022/05/26 09:34:36;;;;;;;5.13;2.00;;;;;;;;;;5014355;28;20105;-74
2022/05/26 09:37:05;;;;;;;5.75;2.20;;;;;;;;;;5018632;28;20559;-79
2022/05/26 09:39:37;;;;;;;4.88;2.45;;;;;;;;;;5018363;28;20144;-79
2022/05/26 09:42:23;;;;;;;4.72;2.40;;;;;;;;;;5016412;28;20048;-79
2022/05/26 09:44:54;;;;;;;5.53;2.15;;;;;;;;;;5015827;28;20092;-78
2022/05/26 09:47:30;;;;;;;5.03;2.95;;;;;;;;;;5006807;28;20528;-78
2022/05/26 09:49:59;;;;;;;5.15;2.17;;;;;;;;;;5005429;28;20073;-79
2022/05/26 09:52:30;;;;;;;3.60;2.10;;;;;;;;;;4994873;28;21534;-78
2022/05/26 09:55:19;;;;;;;7.72;2.92;;;;;;;;;;5017692;28;20046;-79
2022/05/26 09:57:48;;;;;;;6.00;2.65;;;;;;;;;;5032736;28;20049;-78
2022/05/26 10:00:17;;;;;;;4.75;2.88;;;;;;;;;;5042713;28;20107;-77
2022/05/26 10:02:48;;;;;;;4.93;2.30;;;;;;;;;;5031104;28;20493;-78
2022/05/26 10:05:21;;;;;;;;;;;;;;;;;;5034558;28;20484;-78
2022/05/26 10:08:01;;;;;;;4.18;2.13;;;;;;;;;;5011771;28;19968;-78
2022/05/26 10:10:31;;;;;;;4.78;2.47;;;;;;;;;;5013689;28;20050;-78
2022/05/26 10:13:19;;;;;;;5.45;2.70;;;;;;;;;;5012679;28;20050;-78
2022/05/26 10:15:55;;;;;;;7.47;2.40;;;;;;;;;;5014218;28;20073;-77
2022/05/26 10:18:39;;;;;;;6.32;2.55;;;;;;;;;;5014116;28;20132;-78
2022/05/26 10:21:13;;;;;;;7.93;2.40;;;;;;;;;;5021681;28;20064;-78
2022/05/26 10:23:57;;;;;;;5.80;2.78;;;;;;;;;;5030459;28;20045;-79
2022/05/26 10:26:30;;;;;;;8.90;3.30;;;;;;;;;;5018417;28;20045;-78
2022/05/26 10:29:19;;;;;;;5.70;2.28;;;;;;;;;;5014812;28;20053;-78
2022/05/26 10:32:04;;;;;;;5.65;2.80;;;;;;;;;;5016056;28;20080;-77
2022/05/26 10:34:50;;;;;;;3.97;2.28;;;;;;;;;;5021756;28;20045;-77
2022/05/26 10:37:29;;;;;;;5.00;2.30;;;;;;;;;;5024745;28;20038;-78
2022/05/26 10:40:17;;;;;;;5.60;2.40;;;;;;;;;;5002089;28;20105;-79
2022/05/26 10:42:49;;;;;;;6.45;3.45;;;;;;;;;;5017686;28;20053;-77
2022/05/26 10:45:20;;;;;;;6.00;2.33;;;;;;;;;;5015335;28;20125;-78
2022/05/26 10:47:56;;;;;;;5.78;2.10;;;;;;;;;;5013456;28;20046;-79
2022/05/26 10:50:29;;;;;;;5.15;2.20;;;;;;;;;;5013999;28;20065;-77
2022/05/26 10:53:02;;;;;;;5.15;2.58;;;;;;;;;;5012427;28;20045;-77
2022/05/26 10:55:37;;;;;;;6.03;2.38;;;;;;;;;;5000591;28;20050;-78
2022/05/26 10:58:10;;;;;;;4.97;2.03;;;;;;;;;;5016993;28;20080;-79
2022/05/26 11:00:38;;;;;;;5.35;2.47;;;;;;;;;;5052887;28;20088;-78
2022/05/26 11:03:14;;;;;;;6.65;3.40;;;;;;;;;;5044342;28;20548;-79
2022/05/26 11:05:46;;;;;;;5.13;2.30;;;;;;;;;;5033904;28;20141;-77
2022/05/26 11:08:22;;;;;;;6.65;2.10;;;;;;;;;;4997980;28;20122;-78
2022/05/26 11:10:53;;;;;;;6.07;2.03;;;;;;;;;;4994981;28;20050;-78
2022/05/26 11:13:27;;;;;;;4.72;1.90;;;;;;;;;;4997307;28;20062;-78
2022/05/26 11:18:49;;;;;;;5.95;2.30;;;;;;;;;;5016918;28;20068;-78
2022/05/26 11:21:18;;;;;;;;;;;;;;;;;;5018372;28;20463;-78
2022/05/26 11:23:46;;;;;;;8.18;2.63;;;;;;;;;;5016925;28;19952;-78
2022/05/26 11:26:22;;;;;;;6.03;2.30;;;;;;;;;;5013671;28;20049;-77
2022/05/26 11:28:53;;;;;;;6.10;2.28;;;;;;;;;;5026579;28;20221;-77
2022/05/26 11:37:18;;;;;;;5.40;2.30;;;;;;;;;;5007564;28;20057;-76
2022/05/26 11:39:46;;;;;;;4.53;1.95;;;;;;;;;;5012869;28;20046;-77
2022/05/26 11:42:26;;;;;;;3.92;2.10;;;;;;;;;;5004698;28;20053;-78
2022/05/26 11:44:57;;;;;;;4.83;2.33;;;;;;;;;;5008454;28;20050;-82
2022/05/26 11:47:35;;;;;;;4.53;2.20;;;;;;;;;;5028849;28;20050;-78
2022/05/26 11:50:22;;;;;;;7.65;2.67;;;;;;;;;;5019437;28;20042;-80
2022/05/26 11:53:15;;;;;;;5.97;3.03;;;;;;;;;;5002646;28;20042;-75
2022/05/26 11:55:49;;;;;;;5.43;2.05;;;;;;;;;;5018481;28;20046;-82
2022/05/26 11:58:26;;;;;;;5.15;2.30;;;;;;;;;;5021259;28;20100;-79
2022/05/26 12:01:14;;;;;;;4.07;2.00;;;;;;;;;;5015000;28;20046;-76
2022/05/26 12:04:06;;;;;;;4.78;1.92;;;;;;;;;;5012493;28;20069;-78
2022/05/26 12:06:35;;;;;;;4.00;1.90;;;;;;;;;;5024169;28;20046;-79
2022/05/26 12:09:05;;;;;;;4.70;1.95;;;;;;;;;;5015287;28;20080;-76
2022/05/26 12:11:54;;;;;;;5.43;2.15;;;;;;;;;;5011539;28;20050;-77
2022/05/26 12:14:22;;;;;;;3.80;2.33;;;;;;;;;;4998446;28;20054;-78
2022/05/26 12:16:49;;;;;;;5.25;1.88;;;;;;;;;;5014897;28;20043;-77
2022/05/26 12:19:40;;;;;;;5.15;2.13;;;;;;;;;;4996061;28;20046;-77
2022/05/26 12:22:20;;;;;;;4.43;2.00;;;;;;;;;;5021687;28;20485;-76
2022/05/26 12:25:16;;;;;;;5.85;2.40;;;;;;;;;;5040005;28;20100;-78
2022/05/26 12:28:24;;;;;;;3.75;1.90;;;;;;;;;;5022313;28;20046;-78
2022/05/26 12:31:12;;;;;;;6.30;1.88;;;;;;;;;;5019127;28;20050;-78
2022/05/26 12:34:12;;;;;;;3.28;2.00;;;;;;;;;;5021947;28;20088;-78
2022/05/26 12:37:03;;;;;;;5.85;2.63;;;;;;;;;;5022025;28;20046;-78
2022/05/26 12:39:54;;;;;;;3.30;1.80;;;;;;;;;;5016360;28;20463;-78
2022/05/26 12:42:30;;;;;;;5.05;2.00;;;;;;;;;;5021780;28;20061;-78
2022/05/26 12:45:16;;;;;;;5.95;2.70;;;;;;;;;;5016366;28;20416;-78
2022/05/26 12:48:12;;;;;;;3.88;1.90;;;;;;;;;;5016476;28;20046;-77
2022/05/26 12:50:41;;;;;;;6.75;2.15;;;;;;;;;;5014354;28;20448;-77
2022/05/26 12:53:14;;;;;;;4.80;1.80;;;;;;;;;;5016807;28;20042;-79
2022/05/26 12:55:48;;;;;;;3.97;2.13;;;;;;;;;;5019622;28;20081;-78
2022/05/26 12:58:18;;;;;;;4.93;2.28;;;;;;;;;;5021469;28;20140;-79
2022/05/26 13:00:47;;;;;;;10.65;4.72;;;;;;;;;;5005845;28;20181;-77
2022/05/26 13:03:24;;;;;;;4.75;2.65;;;;;;;;;;4997539;28;20054;-78
2022/05/26 13:05:58;;;;;;;6.70;3.40;;;;;;;;;;4999567;28;20109;-80
2022/05/26 13:08:29;;;;;;;5.50;3.00;;;;;;;;;;4998245;28;20584;-78
2022/05/26 13:10:58;;;;;;;5.18;2.58;;;;;;;;;;4998699;28;20486;-76
2022/05/26 13:13:33;;;;;;;5.70;2.10;;;;;;;;;;5016759;28;20045;-78
2022/05/26 13:16:26;;;;;;;6.35;3.83;;;;;;;;;;5024879;28;20611;-78
2022/05/26 13:18:53;;;;;;;4.57;2.53;;;;;;;;;;5027006;28;20137;-77
2022/05/26 13:21:22;;;;;;;3.95;1.90;;;;;;;;;;5022140;28;20058;-78
2022/05/26 13:23:52;;;;;;;3.90;2.10;;;;;;;;;;5021155;28;20502;-77
2022/05/26 13:26:20;;;;;;;6.20;3.75;;;;;;;;;;5017469;28;20103;-77
2022/05/26 13:28:49;;;;;;;5.72;2.25;;;;;;;;;;5030037;28;20053;-77
2022/05/26 13:34:05;;;;;;;4.07;1.90;;;;;;;;;;5025299;28;20061;-79
2022/05/26 13:36:35;;;;;;;3.45;1.88;;;;;;;;;;5026231;28;20516;-79
2022/05/26 13:39:09;;;;;;;6.75;2.00;;;;;;;;;;5019672;28;20061;-77
2022/05/26 13:41:37;;;;;;;5.68;2.25;;;;;;;;;;5024054;28;20116;-77
2022/05/26 13:44:06;;;;;;;4.35;2.08;;;;;;;;;;5023592;28;20050;-78
2022/05/26 13:46:36;;;;;;;6.88;2.15;;;;;;;;;;5012813;28;20101;-78
2022/05/26 13:49:17;;;;;;;3.33;2.17;;;;;;;;;;5003839;28;20077;-78
2022/05/26 13:51:47;;;;;;;5.38;2.05;;;;;;;;;;5020472;28;20084;-78
2022/05/26 13:54:32;;;;;;;5.97;3.28;;;;;;;;;;5024818;28;20052;-77
2022/05/26 13:57:02;;;;;;;5.03;2.72;;;;;;;;;;5006914;28;20049;-79
2022/05/26 13:59:33;;;;;;;7.32;3.08;;;;;;;;;;5020008;28;20493;-78
2022/05/26 14:02:09;;;;;;;4.75;2.60;;;;;;;;;;5025467;28;20053;-78
2022/05/26 14:04:39;;;;;;;6.10;2.40;;;;;;;;;;5022416;28;20062;-79
2022/05/26 14:07:24;;;;;;;4.80;2.08;;;;;;;;;;5017335;28;20069;-79
2022/05/26 14:10:05;;;;;;;3.60;2.00;;;;;;;;;;5018609;28;20053;-78
2022/05/26 14:12:31;;;;;;;4.30;2.03;;;;;;;;;;5017724;28;20042;-78
2022/05/26 14:14:58;;;;;;;5.82;2.42;;;;;;;;;;5018291;28;20591;-79
2022/05/26 14:17:31;;;;;;;4.57;2.20;;;;;;;;;;5017764;28;20054;-78
2022/05/26 14:20:01;;;;;;;6.10;2.17;;;;;;;;;;5018717;28;20068;-78
2022/05/26 14:22:31;;;;;;;5.10;2.00;;;;;;;;;;5018503;28;20042;-77
2022/05/26 14:25:00;;;;;;;4.72;2.00;;;;;;;;;;5019623;28;20061;-77
2022/05/26 14:27:30;;;;;;;5.25;2.70;;;;;;;;;;5018685;28;20810;-79
2022/05/26 14:29:58;;;;;;;;;;;;;;;;;;5020033;28;20046;-79
2022/05/26 14:32:26;;;;;;;;;;;;;;;;;;5019788;28;19975;-80
2022/05/26 14:34:53;;;;;;;;;;;;;;;;;;5019842;28;19921;-78
2022/05/26 14:37:21;;;;;;;;;;;;;;;;;;5020335;28;19987;-78
2022/05/26 14:39:50;;;;;;;;;;;;;;;;;;5019116;28;19925;-78
2022/05/26 14:42:18;;;;;;;;;;;;;;;;;;5018780;28;20357;-77
2022/05/26 14:44:46;;;;;;;;;;;;;;;;;;5023612;28;19921;-77
2022/05/26 14:47:13;;;;;;;;;;;;;;;;;;5024339;28;19928;-77
2022/05/26 14:49:41;;;;;;;;;;;;;;;;;;5022836;28;19928;-78
2022/05/26 14:52:09;;;;;;;;;;;;;;;;;;5023651;28;19925;-79
2022/05/26 14:57:21;;;;;;;;;;;;;;;;;;5022292;28;19928;-78
2022/05/26 14:59:50;;;;;;;;;;;;;;;;;;5041161;28;19925;-78
2022/05/26 15:02:16;;;;;;;;;;;;;;;;;;5039760;28;20319;-79
2022/05/26 15:04:43;;;;;;;;;;;;;;;;;;5040731;28;19944;-78
2022/05/26 15:07:10;;;;;;;;;;;;;;;;;;5038992;28;19925;-79
2022/05/26 15:09:36;;;;;;;;;;;;;;;;;;5038943;28;19928;-78
2022/05/26 15:12:04;;;;;;;;;;;;;;;;;;5039079;28;19944;-77
2022/05/26 15:14:32;;;;;;;;;;;;;;;;;;5039061;28;20304;-79
2022/05/26 15:17:00;;;;;;;;;;;;;;;;;;5039727;28;19928;-79
2022/05/26 15:19:29;;;;;;;;;;;;;;;;;;5038964;28;19921;-80
2022/05/26 15:21:56;;;;;;;;;;;;;;;;;;5039140;28;19925;-80
2022/05/26 15:24:23;;;;;;;;;;;;;;;;;;5039327;28;19921;-80
2022/05/26 15:26:50;;;;;;;;;;;;;;;;;;5040453;28;20364;-79
2022/05/26 15:29:17;;;;;;;;;;;;;;;;;;5039755;28;20354;-79
2022/05/26 15:31:44;;;;;;;;;;;;;;;;;;5039153;28;19921;-80
2022/05/26 15:34:12;;;;;;;;;;;;;;;;;;5039012;28;20407;-80
2022/05/26 15:36:39;;;;;;;;;;;;;;;;;;5037914;28;19921;-81
2022/05/26 15:39:05;;;;;;;;;;;;;;;;;;5038797;28;19921;-80
2022/05/26 15:41:32;;;;;;;;;;;;;;;;;;5037941;28;20372;-79
2022/05/26 15:43:58;;;;;;;;;;;;;;;;;;5037067;28;19944;-79
2022/05/26 15:46:27;;;;;;;;;;;;;;;;;;5038398;28;19925;-78
2022/05/26 15:48:54;;;;;;;;;;;;;;;;;;5038682;28;19928;-80
2022/05/26 15:51:22;;;;;;;;;;;;;;;;;;5039015;28;19921;-81
2022/05/26 15:53:48;;;;;;;;;;;;;;;;;;5038492;28;20442;-80
2022/05/26 15:56:17;;;;;;;;;;;;;;;;;;5037873;28;19928;-80
2022/05/26 15:58:44;;;;;;;;;;;;;;;;;;5028701;28;19921;-79